Time;durP1;ratioP1;P1;durP2;ratioP2;P2;SDS_P1;SDS_P2;PMS_P1;PMS_P2;Temp;Humidity;BMP_temperature;BMP_pressure;BME280_temperature;BME280_humidity;BME280_pressure;Samples;Min_cycle;Max_cycle;Signal;HPM_P1;HPM_P2
2021/07/26 00:02:22;;;;;;;7.43;5.78;;;665.90;1612.80;;;;;;5054111;28;20024;-75
2021/07/26 00:04:48;;;;;;;9.68;6.00;;;665.90;1612.80;;;;;;5047975;28;20058;-69
2021/07/26 00:07:14;;;;;;;8.85;5.63;;;665.80;1612.80;;;;;;5071694;28;20103;-79
2021/07/26 00:09:39;;;;;;;11.45;6.40;;;665.90;1587.20;;;;;;5072192;28;20107;-69
2021/07/26 00:12:07;;;;;;;8.60;6.10;;;665.90;1612.80;;;;;;5071719;28;20021;-69
2021/07/26 00:14:33;;;;;;;7.75;5.75;;;665.90;1587.20;;;;;;5072172;28;20017;-73
2021/07/26 00:16:59;;;;;;;9.05;6.30;;;665.90;1587.20;;;;;;5071418;28;20141;-77
2021/07/26 00:19:25;;;;;;;10.68;6.15;;;665.80;1612.80;;;;;;5071937;28;20373;-70
2021/07/26 00:21:51;;;;;;;8.48;5.70;;;665.80;1587.20;;;;;;5071734;28;20029;-78
2021/07/26 00:24:20;;;;;;;9.40;5.40;;;665.80;1587.20;;;;;;5072023;28;20024;-76
2021/07/26 00:26:47;;;;;;;8.00;6.00;;;665.80;1587.20;;;;;;5071499;28;20016;-79
2021/07/26 00:29:13;;;;;;;9.27;6.38;;;665.70;1612.80;;;;;;5071948;28;20082;-74
2021/07/26 00:31:38;;;;;;;11.23;6.10;;;665.80;1587.20;;;;;;5071867;28;20016;-70
2021/07/26 00:34:22;;;;;;;11.82;5.75;;;665.80;1587.20;;;;;;5072463;28;20485;-70
2021/07/26 00:36:59;;;;;;;7.15;5.63;;;665.80;1587.20;;;;;;5072793;28;20028;-69
2021/07/26 00:39:27;;;;;;;11.88;5.68;;;665.80;1587.20;;;;;;5072796;28;20021;-69
2021/07/26 00:41:55;;;;;;;8.75;5.50;;;665.80;1587.20;;;;;;5072863;28;20071;-69
2021/07/26 00:44:23;;;;;;;11.20;5.70;;;665.70;1587.20;;;;;;5054146;28;20021;-69
2021/07/26 00:46:50;;;;;;;9.07;5.57;;;665.80;1587.20;;;;;;5072811;28;20017;-69
2021/07/26 00:49:18;;;;;;;8.55;5.55;;;665.80;1587.20;;;;;;5073000;28;20029;-69
2021/07/26 00:51:47;;;;;;;8.02;5.35;;;665.80;1587.20;;;;;;5072789;28;20016;-69
2021/07/26 00:54:37;;;;;;;11.98;6.53;;;665.80;1587.20;;;;;;5073055;28;20031;-69
2021/07/26 00:57:05;;;;;;;10.45;5.82;;;665.70;1587.20;;;;;;5076177;28;20110;-69
2021/07/26 00:59:32;;;;;;;6.88;5.18;;;665.70;1587.20;;;;;;5076424;28;20078;-69
2021/07/26 01:01:58;;;;;;;16.30;5.55;;;665.70;1587.20;;;;;;5076300;28;20028;-70
2021/07/26 01:04:25;;;;;;;11.18;6.05;;;665.70;1587.20;;;;;;5076405;28;20479;-70
2021/07/26 01:06:53;;;;;;;9.43;5.57;;;665.70;1587.20;;;;;;5076419;28;20024;-70
2021/07/26 01:09:19;;;;;;;10.75;5.90;;;665.70;1587.20;;;;;;5076409;28;20028;-69
2021/07/26 01:11:45;;;;;;;6.93;5.70;;;665.70;1561.60;;;;;;5076980;28;20368;-69
2021/07/26 01:14:15;;;;;;;12.95;5.55;;;665.80;1561.60;;;;;;5076722;28;20088;-69
2021/07/26 01:16:42;;;;;;;6.78;5.30;;;665.70;1561.60;;;;;;5075132;28;20028;-70
2021/07/26 01:19:07;;;;;;;7.63;5.47;;;665.70;1561.60;;;;;;5076223;28;20082;-70
2021/07/26 01:21:33;;;;;;;8.65;5.55;;;665.70;1561.60;;;;;;5076145;28;20020;-70
2021/07/26 01:24:01;;;;;;;9.50;5.85;;;665.70;1561.60;;;;;;5058260;28;20483;-72
2021/07/26 01:26:27;;;;;;;11.60;5.40;;;665.70;1561.60;;;;;;5075949;28;20016;-69
2021/07/26 01:28:55;;;;;;;6.97;4.75;;;665.70;1561.60;;;;;;5076194;28;20024;-69
2021/07/26 01:31:21;;;;;;;9.57;5.60;;;665.70;1561.60;;;;;;5075802;28;20158;-69
2021/07/26 01:33:48;;;;;;;6.28;4.50;;;665.70;1536.00;;;;;;5058115;28;20032;-69
2021/07/26 01:36:16;;;;;;;7.70;5.20;;;665.70;1536.00;;;;;;5075858;28;20105;-69
2021/07/26 01:38:45;;;;;;;8.63;4.85;;;665.70;1561.60;;;;;;5075861;28;20020;-69
2021/07/26 01:41:21;;;;;;;8.88;4.80;;;665.70;1536.00;;;;;;5075531;28;20025;-69
2021/07/26 01:46:29;;;;;;;7.10;4.90;;;665.80;1561.60;;;;;;5075935;28;20036;-70
2021/07/26 01:49:26;;;;;;;9.32;5.75;;;665.70;1536.00;;;;;;5057615;28;20155;-69
2021/07/26 01:51:52;;;;;;;10.68;5.47;;;665.70;1536.00;;;;;;5075873;28;20048;-70
2021/07/26 01:54:18;;;;;;;10.55;5.18;;;665.80;1561.60;;;;;;5075492;28;20354;-71
2021/07/26 01:56:44;;;;;;;15.30;5.43;;;665.70;1561.60;;;;;;5075302;28;20115;-69
2021/07/26 01:59:11;;;;;;;9.15;4.75;;;665.80;1536.00;;;;;;5075308;28;20401;-69
2021/07/26 02:01:36;;;;;;;12.23;4.97;;;665.80;1561.60;;;;;;5075333;28;20032;-69
2021/07/26 02:04:02;;;;;;;6.70;5.43;;;665.70;1561.60;;;;;;5075110;28;20016;-70
2021/07/26 02:06:28;;;;;;;10.25;5.03;;;665.80;1536.00;;;;;;5074203;28;20131;-70
2021/07/26 02:08:54;;;;;;;8.77;5.22;;;665.70;1561.60;;;;;;5057704;28;20025;-69
2021/07/26 02:11:21;;;;;;;6.03;4.57;;;665.70;1536.00;;;;;;5057149;28;20032;-69
2021/07/26 02:13:51;;;;;;;7.38;5.65;;;665.70;1561.60;;;;;;5075336;28;20420;-70
2021/07/26 02:16:17;;;;;;;9.38;5.40;;;665.70;1561.60;;;;;;5075043;28;20044;-70
2021/07/26 02:18:44;;;;;;;8.27;5.30;;;665.60;1561.60;;;;;;5074826;28;20106;-70
2021/07/26 02:21:10;;;;;;;8.45;4.85;;;665.70;1561.60;;;;;;5074956;28;20031;-70
2021/07/26 02:23:36;;;;;;;10.23;5.18;;;665.70;1561.60;;;;;;5056787;28;20435;-69
2021/07/26 02:26:02;;;;;;;8.10;5.13;;;665.60;1561.60;;;;;;5074853;28;20032;-70
2021/07/26 02:28:28;;;;;;;5.78;5.18;;;665.70;1561.60;;;;;;5074802;28;20024;-70
2021/07/26 02:30:54;;;;;;;9.10;4.57;;;665.70;1561.60;;;;;;5074956;28;20028;-70
2021/07/26 02:33:20;;;;;;;13.63;5.30;;;665.70;1561.60;;;;;;5075005;28;20028;-70
2021/07/26 02:35:47;;;;;;;7.55;5.35;;;665.70;1561.60;;;;;;5074653;28;20027;-70
2021/07/26 02:38:13;;;;;;;9.88;4.63;;;665.60;1561.60;;;;;;5074570;28;20036;-70
2021/07/26 02:40:39;;;;;;;7.75;4.40;;;665.60;1561.60;;;;;;5074519;28;20077;-70
2021/07/26 02:43:05;;;;;;;10.90;5.20;;;665.70;1561.60;;;;;;5074591;28;20029;-70
2021/07/26 02:45:31;;;;;;;11.13;4.60;;;665.60;1536.00;;;;;;5074309;28;20025;-70
2021/07/26 02:47:57;;;;;;;10.45;5.28;;;665.60;1561.60;;;;;;5074270;28;20377;-70
2021/07/26 02:50:26;;;;;;;6.88;4.90;;;665.70;1561.60;;;;;;5074483;28;20021;-70
2021/07/26 02:52:58;;;;;;;7.95;4.85;;;665.60;1536.00;;;;;;5074559;28;20346;-69
2021/07/26 02:55:24;;;;;;;7.90;5.65;;;665.60;1561.60;;;;;;5074933;28;20024;-70
2021/07/26 02:57:53;;;;;;;11.60;5.28;;;665.60;1561.60;;;;;;5074522;28;20127;-70
2021/07/26 03:00:19;;;;;;;8.02;4.85;;;665.60;1561.60;;;;;;5056122;28;20102;-70
2021/07/26 03:02:45;;;;;;;11.07;5.45;;;665.70;1561.60;;;;;;5074340;28;20464;-70
2021/07/26 03:05:11;;;;;;;6.80;4.63;;;665.70;1561.60;;;;;;5074287;28;20021;-69
2021/07/26 03:07:37;;;;;;;12.55;5.50;;;665.60;1561.60;;;;;;5074233;28;20028;-69
2021/07/26 03:10:03;;;;;;;7.47;4.82;;;665.60;1561.60;;;;;;5073824;28;20031;-69
2021/07/26 03:12:29;;;;;;;9.55;4.85;;;665.60;1561.60;;;;;;5074046;28;20388;-69
2021/07/26 03:14:55;;;;;;;8.48;5.80;;;665.60;1561.60;;;;;;5074401;28;20048;-69
2021/07/26 03:17:24;;;;;;;6.65;5.55;;;665.60;1587.20;;;;;;5072526;28;20032;-69
2021/07/26 03:19:53;;;;;;;13.30;5.45;;;665.60;1561.60;;;;;;5073691;28;20496;-69
2021/07/26 03:23:01;;;;;;;11.60;5.35;;;665.70;1561.60;;;;;;5073667;28;20024;-69
2021/07/26 03:25:28;;;;;;;8.35;5.10;;;665.70;1536.00;;;;;;5073648;28;20070;-69
2021/07/26 03:27:55;;;;;;;11.40;5.68;;;665.70;1561.60;;;;;;5073578;28;20025;-69
2021/07/26 03:30:21;;;;;;;8.43;5.07;;;665.70;1561.60;;;;;;5072520;28;20103;-69
2021/07/26 03:32:47;;;;;;;10.40;5.10;;;665.70;1561.60;;;;;;5072250;28;20100;-69
2021/07/26 03:35:14;;;;;;;9.38;5.30;;;665.70;1561.60;;;;;;5055238;28;20044;-69
2021/07/26 03:37:40;;;;;;;10.23;5.40;;;665.70;1561.60;;;;;;5073434;28;20037;-69
2021/07/26 03:40:08;;;;;;;12.55;5.43;;;665.70;1561.60;;;;;;5073424;28;20055;-69
2021/07/26 03:42:34;;;;;;;9.50;5.40;;;665.70;1561.60;;;;;;5073337;28;20024;-69
2021/07/26 03:45:01;;;;;;;11.02;5.50;;;665.70;1561.60;;;;;;5073379;28;20020;-70
2021/07/26 03:47:27;;;;;;;12.02;5.57;;;665.70;1536.00;;;;;;5073653;28;20020;-70
2021/07/26 03:49:53;;;;;;;9.63;5.43;;;665.70;1561.60;;;;;;5074226;28;20024;-69
2021/07/26 03:52:19;;;;;;;7.90;4.90;;;665.60;1587.20;;;;;;5073523;28;20064;-69
2021/07/26 03:54:45;;;;;;;8.13;6.13;;;640.90;1561.60;;;;;;5073303;28;20021;-69
2021/07/26 03:57:11;;;;;;;10.80;5.93;;;640.90;1561.60;;;;;;5072922;28;20056;-69
2021/07/26 03:59:38;;;;;;;12.50;4.95;;;640.80;1587.20;;;;;;5073653;28;20042;-69
2021/07/26 04:02:04;;;;;;;8.77;4.80;;;640.80;1561.60;;;;;;5055172;28;20032;-70
2021/07/26 04:04:30;;;;;;;6.68;5.05;;;640.80;1536.00;;;;;;5073215;28;20029;-69
2021/07/26 04:07:00;;;;;;;10.07;5.38;;;640.90;1536.00;;;;;;5073244;28;20381;-69
2021/07/26 04:09:31;;;;;;;15.02;5.57;;;640.90;1536.00;;;;;;5073143;28;20107;-69
2021/07/26 04:12:02;;;;;;;7.28;5.30;;;640.90;1536.00;;;;;;5073214;28;20066;-70
2021/07/26 04:14:31;;;;;;;7.32;4.50;;;640.90;1561.60;;;;;;5073449;28;20036;-69
2021/07/26 04:16:56;;;;;;;7.68;4.95;;;640.90;1536.00;;;;;;5073255;28;20040;-69
2021/07/26 04:19:23;;;;;;;7.78;5.05;;;640.90;1536.00;;;;;;5073451;28;20020;-69
2021/07/26 04:21:48;;;;;;;9.98;4.72;;;640.80;1536.00;;;;;;5073154;28;20136;-70
2021/07/26 04:24:14;;;;;;;15.45;4.88;;;640.90;1536.00;;;;;;5073111;28;20112;-69
2021/07/26 04:26:42;;;;;;;9.50;5.05;;;640.90;1536.00;;;;;;5073174;28;20028;-69
2021/07/26 04:29:08;;;;;;;9.25;5.22;;;665.60;1587.20;;;;;;5073385;28;20032;-69
2021/07/26 04:31:34;;;;;;;8.75;5.38;;;665.60;1587.20;;;;;;5076976;28;20025;-69
2021/07/26 04:33:59;;;;;;;13.65;5.38;;;640.90;1561.60;;;;;;5077096;28;20150;-69
2021/07/26 04:36:25;;;;;;;7.90;4.90;;;665.60;1587.20;;;;;;5076876;28;20023;-69
2021/07/26 04:38:51;;;;;;;10.60;5.60;;;665.60;1587.20;;;;;;5076860;28;20028;-69
2021/07/26 04:41:17;;;;;;;8.30;5.47;;;665.60;1587.20;;;;;;5076773;28;20380;-69
2021/07/26 04:43:43;;;;;;;7.97;4.63;;;665.60;1587.20;;;;;;5076887;28;20028;-69
2021/07/26 04:46:09;;;;;;;7.93;4.55;;;665.60;1587.20;;;;;;5077099;28;20024;-70
2021/07/26 04:48:35;;;;;;;9.88;4.95;;;665.60;1587.20;;;;;;5076690;28;20043;-69
2021/07/26 04:51:01;;;;;;;7.85;5.10;;;665.60;1587.20;;;;;;5076842;28;20504;-70
2021/07/26 04:53:27;;;;;;;8.50;5.13;;;665.60;1587.20;;;;;;5076503;28;20358;-69
2021/07/26 04:55:53;;;;;;;10.77;5.07;;;665.60;1612.80;;;;;;5076503;28;20051;-69
2021/07/26 04:58:19;;;;;;;4.85;4.35;;;665.60;1612.80;;;;;;5076187;28;20076;-69
2021/07/26 05:00:45;;;;;;;9.25;5.57;;;665.60;1587.20;;;;;;5076418;28;20035;-69
2021/07/26 05:03:11;;;;;;;8.82;5.43;;;665.60;1612.80;;;;;;5058649;28;20477;-69
2021/07/26 05:05:37;;;;;;;8.95;4.95;;;665.60;1612.80;;;;;;5076496;28;20027;-69
2021/07/26 05:08:03;;;;;;;9.95;5.60;;;665.60;1612.80;;;;;;5076413;28;20021;-69
2021/07/26 05:10:29;;;;;;;9.77;5.72;;;640.90;1587.20;;;;;;5076209;28;20031;-69
2021/07/26 05:12:55;;;;;;;9.55;5.20;;;665.60;1612.80;;;;;;5076403;28;20021;-69
2021/07/26 05:15:21;;;;;;;7.43;5.10;;;665.60;1612.80;;;;;;5058216;28;20028;-69
2021/07/26 05:17:47;;;;;;;12.88;5.13;;;665.60;1638.40;;;;;;5076432;28;20036;-69
2021/07/26 05:20:13;;;;;;;8.25;4.78;;;665.60;1638.40;;;;;;5058147;28;20112;-69
2021/07/26 05:22:39;;;;;;;7.78;5.22;;;665.70;1612.80;;;;;;5075930;28;20052;-69
2021/07/26 05:25:09;;;;;;;9.63;5.00;;;665.70;1638.40;;;;;;5075986;28;20017;-69
2021/07/26 05:27:35;;;;;;;9.80;5.47;;;665.80;1612.80;;;;;;5076304;28;20422;-69
2021/07/26 05:30:05;;;;;;;7.47;5.68;;;665.80;1612.80;;;;;;5075961;28;20561;-69
2021/07/26 05:32:31;;;;;;;10.27;5.43;;;665.80;1612.80;;;;;;5075711;28;20031;-69
2021/07/26 05:34:57;;;;;;;7.82;5.82;;;665.80;1612.80;;;;;;5075749;28;20052;-69
2021/07/26 05:37:23;;;;;;;11.40;5.60;;;665.80;1612.80;;;;;;5075718;28;20083;-69
2021/07/26 05:39:49;;;;;;;8.13;5.50;;;665.80;1612.80;;;;;;5075704;28;20027;-70
2021/07/26 05:42:16;;;;;;;8.88;5.45;;;665.90;1612.80;;;;;;5074460;28;20035;-70
2021/07/26 05:44:43;;;;;;;10.25;6.13;;;666.00;1638.40;;;;;;5075815;28;20423;-69
2021/07/26 05:47:10;;;;;;;11.55;6.25;;;666.00;1612.80;;;;;;5075570;28;20027;-69
2021/07/26 05:49:36;;;;;;;8.85;5.88;;;666.00;1638.40;;;;;;5075488;28;20024;-69
2021/07/26 05:52:02;;;;;;;9.60;6.43;;;666.00;1638.40;;;;;;5075576;28;20032;-69
2021/07/26 05:54:29;;;;;;;11.27;6.90;;;666.00;1638.40;;;;;;5075441;28;20039;-69
2021/07/26 05:56:54;;;;;;;12.77;6.88;;;666.10;1638.40;;;;;;5057186;28;20127;-69
2021/07/26 05:59:21;;;;;;;9.82;7.03;;;666.10;1638.40;;;;;;5075433;28;20557;-69
2021/07/26 06:01:47;;;;;;;12.73;6.55;;;666.10;1638.40;;;;;;5075461;28;20021;-69
2021/07/26 06:04:22;;;;;;;9.77;6.03;;;666.20;1612.80;;;;;;5041178;28;20071;-69
2021/07/26 06:06:50;;;;;;;10.88;5.18;;;666.30;1612.80;;;;;;5075192;28;20100;-69
2021/07/26 06:09:16;;;;;;;10.48;5.68;;;666.30;1638.40;;;;;;5075171;28;20020;-69
2021/07/26 06:11:43;;;;;;;12.10;5.70;;;666.30;1612.80;;;;;;5075041;28;20032;-69
2021/07/26 06:14:10;;;;;;;7.20;5.50;;;666.30;1612.80;;;;;;5075032;28;20067;-70
2021/07/26 06:16:41;;;;;;;8.15;5.30;;;666.40;1612.80;;;;;;5075741;28;20079;-69
2021/07/26 06:19:11;;;;;;;10.32;4.53;;;666.40;1612.80;;;;;;5075077;28;20034;-69
2021/07/26 06:21:44;;;;;;;5.65;4.95;;;666.40;1612.80;;;;;;5074846;28;20016;-70
2021/07/26 06:24:10;;;;;;;6.13;4.85;;;691.20;1612.80;;;;;;5074924;28;20059;-69
2021/07/26 06:26:36;;;;;;;10.02;5.50;;;691.30;1612.80;;;;;;5075058;28;20104;-71
2021/07/26 06:29:03;;;;;;;8.20;6.05;;;691.40;1612.80;;;;;;5075064;28;20431;-70
2021/07/26 06:31:30;;;;;;;7.13;5.05;;;691.40;1612.80;;;;;;5073992;28;20024;-76
2021/07/26 06:33:55;;;;;;;7.18;5.28;;;691.40;1612.80;;;;;;5071277;28;20021;-69
2021/07/26 06:36:21;;;;;;;6.90;5.50;;;691.50;1587.20;;;;;;5074070;28;20046;-70
2021/07/26 06:38:47;;;;;;;10.27;5.18;;;691.60;1587.20;;;;;;5074120;28;20024;-70
2021/07/26 06:41:13;;;;;;;6.72;5.07;;;691.50;1587.20;;;;;;5073969;28;20427;-73
2021/07/26 06:43:38;;;;;;;7.75;5.15;;;691.60;1587.20;;;;;;5074128;28;20100;-70
2021/07/26 06:46:06;;;;;;;12.00;5.30;;;691.60;1587.20;;;;;;5073758;28;20025;-71
2021/07/26 06:48:32;;;;;;;8.43;5.03;;;691.50;1612.80;;;;;;5073714;28;20020;-70
2021/07/26 06:50:58;;;;;;;6.53;5.25;;;691.60;1587.20;;;;;;5055979;28;20032;-72
2021/07/26 06:53:25;;;;;;;19.38;6.10;;;691.70;1612.80;;;;;;5073927;28;20021;-70
2021/07/26 06:55:51;;;;;;;8.57;5.40;;;691.70;1612.80;;;;;;5074561;28;20032;-71
2021/07/26 06:58:17;;;;;;;15.27;7.18;;;691.80;1587.20;;;;;;5074118;28;20501;-76
2021/07/26 07:00:43;;;;;;;9.38;6.00;;;691.80;1638.40;;;;;;5056174;28;20024;-72
2021/07/26 07:03:09;;;;;;;12.13;5.68;;;691.80;1612.80;;;;;;5074199;28;20024;-69
2021/07/26 07:05:34;;;;;;;13.63;6.15;;;691.90;1587.20;;;;;;5073642;28;20031;-69
2021/07/26 07:08:03;;;;;;;18.67;5.72;;;691.90;1587.20;;;;;;5073720;28;20396;-69
2021/07/26 07:10:29;;;;;;;14.80;5.82;;;692.00;1587.20;;;;;;5052512;28;20016;-69
2021/07/26 07:12:55;;;;;;;20.85;6.35;;;692.00;1587.20;;;;;;5071926;28;20107;-75
2021/07/26 07:15:23;;;;;;;20.13;7.18;;;692.00;1587.20;;;;;;5072573;28;20024;-74
2021/07/26 07:17:49;;;;;;;24.35;6.47;;;692.00;1587.20;;;;;;5072189;28;20029;-71
2021/07/26 07:20:16;;;;;;;14.20;6.28;;;692.10;1587.20;;;;;;5072652;28;20019;-74
2021/07/26 07:22:42;;;;;;;12.40;6.00;;;692.10;1587.20;;;;;;5071995;28;20035;-74
2021/07/26 07:25:09;;;;;;;12.90;6.55;;;716.80;1638.40;;;;;;5072004;28;20013;-69
2021/07/26 07:27:34;;;;;;;19.33;6.20;;;716.80;1612.80;;;;;;5072338;28;20027;-74
2021/07/26 07:30:00;;;;;;;25.70;7.22;;;691.90;1587.20;;;;;;5072119;28;20108;-74
2021/07/26 07:32:26;;;;;;;26.95;6.85;;;716.80;1612.80;;;;;;5071875;28;20369;-76
2021/07/26 07:34:52;;;;;;;22.58;7.47;;;716.80;1612.80;;;;;;5070957;28;20073;-75
2021/07/26 07:37:18;;;;;;;19.95;7.35;;;716.90;1612.80;;;;;;5071379;28;20116;-75
2021/07/26 07:39:44;;;;;;;23.42;7.65;;;716.90;1612.80;;;;;;5071328;28;20009;-74
2021/07/26 07:42:10;;;;;;;18.52;7.20;;;716.90;1612.80;;;;;;5071841;28;20020;-71
2021/07/26 07:44:35;;;;;;;18.10;7.13;;;717.00;1612.80;;;;;;5053681;28;20032;-75
2021/07/26 07:47:03;;;;;;;14.98;7.13;;;717.00;1612.80;;;;;;5071613;28;20027;-69
2021/07/26 07:49:29;;;;;;;20.88;6.35;;;717.00;1612.80;;;;;;5053613;28;20500;-70
2021/07/26 07:51:56;;;;;;;15.48;6.78;;;717.00;1612.80;;;;;;5053253;28;20035;-76
2021/07/26 07:54:22;;;;;;;14.35;6.47;;;717.00;1612.80;;;;;;5071420;28;20472;-74
2021/07/26 07:56:51;;;;;;;14.07;6.75;;;717.00;1612.80;;;;;;5070580;28;20397;-74
2021/07/26 07:59:17;;;;;;;27.23;7.22;;;717.00;1638.40;;;;;;5071375;28;20078;-70
2021/07/26 08:01:43;;;;;;;34.08;8.05;;;717.00;1612.80;;;;;;5070961;28;20021;-75
2021/07/26 08:04:09;;;;;;;36.88;8.13;;;717.00;1612.80;;;;;;5070730;28;20024;-73
2021/07/26 08:06:40;;;;;;;41.72;8.30;;;717.00;1638.40;;;;;;5070692;28;20655;-70
2021/07/26 08:09:07;;;;;;;32.05;7.68;;;717.00;1612.80;;;;;;5070851;28;20372;-69
2021/07/26 08:11:33;;;;;;;55.10;8.52;;;717.10;1612.80;;;;;;5071139;28;20016;-69
2021/07/26 08:13:59;;;;;;;44.35;8.73;;;717.10;1612.80;;;;;;5071227;28;20116;-69
2021/07/26 08:16:24;;;;;;;52.05;9.05;;;717.10;1612.80;;;;;;5071112;28;20070;-72
2021/07/26 08:18:50;;;;;;;35.30;8.85;;;717.10;1612.80;;;;;;5071205;28;20419;-76
2021/07/26 08:21:17;;;;;;;31.52;8.75;;;717.10;1638.40;;;;;;5071251;28;20031;-74
2021/07/26 08:23:43;;;;;;;24.27;8.27;;;717.10;1612.80;;;;;;5079058;28;20021;-69
2021/07/26 08:26:12;;;;;;;30.42;8.50;;;717.10;1612.80;;;;;;5071547;28;20019;-69
2021/07/26 08:28:38;;;;;;;27.63;8.35;;;717.10;1612.80;;;;;;5071487;28;20447;-71
2021/07/26 08:31:04;;;;;;;26.17;7.90;;;717.10;1638.40;;;;;;5071344;28;20024;-69
2021/07/26 08:33:30;;;;;;;33.22;8.75;;;717.10;1638.40;;;;;;5068819;28;20017;-71
2021/07/26 08:35:57;;;;;;;45.13;9.43;;;717.10;1638.40;;;;;;5071596;28;20021;-74
2021/07/26 08:38:23;;;;;;;57.13;10.13;;;717.10;1689.60;;;;;;5071328;28;20116;-74
2021/07/26 08:40:49;;;;;;;52.75;8.82;;;717.20;1638.40;;;;;;5069080;28;20445;-71
2021/07/26 08:43:15;;;;;;;89.40;13.20;;;717.20;1638.40;;;;;;5072872;28;20388;-69
2021/07/26 08:45:41;;;;;;;42.38;9.70;;;717.20;1664.00;;;;;;5065949;28;20029;-74
2021/07/26 08:48:09;;;;;;;45.75;12.43;;;717.20;1664.00;;;;;;5071387;28;20032;-69
2021/07/26 08:50:36;;;;;;;35.72;10.00;;;717.20;1664.00;;;;;;5071422;28;20017;-77
2021/07/26 08:53:07;;;;;;;51.20;10.55;;;717.20;1664.00;;;;;;5052879;28;20025;-70
2021/07/26 08:55:34;;;;;;;34.42;9.63;;;717.30;1664.00;;;;;;5070759;28;20062;-71
2021/07/26 08:58:00;;;;;;;26.15;9.65;;;717.30;1664.00;;;;;;5070384;28;20122;-74
2021/07/26 09:00:26;;;;;;;34.10;9.48;;;717.30;1664.00;;;;;;5070898;28;20019;-74
2021/07/26 09:02:53;;;;;;;29.73;9.82;;;717.30;1638.40;;;;;;5070488;28;20032;-72
2021/07/26 09:05:19;;;;;;;32.70;9.82;;;717.20;1664.00;;;;;;5070771;28;20020;-70
2021/07/26 09:07:48;;;;;;;62.50;9.75;;;717.30;1638.40;;;;;;5070900;28;20020;-74
2021/07/26 09:10:23;;;;;;;25.83;9.70;;;717.30;1664.00;;;;;;5070745;28;20095;-75
2021/07/26 09:12:54;;;;;;;20.77;9.68;;;717.30;1664.00;;;;;;5069377;28;20013;-75
2021/07/26 09:15:35;;;;;;;47.47;11.18;;;717.30;1689.60;;;;;;5068489;28;20388;-71
2021/07/26 09:18:02;;;;;;;94.65;17.13;;;717.30;1664.00;;;;;;5072587;28;20033;-73
2021/07/26 09:20:30;;;;;;;80.28;15.13;;;717.30;1689.60;;;;;;5056562;28;20020;-76
2021/07/26 09:22:58;;;;;;;73.55;15.40;;;717.30;1664.00;;;;;;5074908;28;20386;-72
2021/07/26 09:25:28;;;;;;;99.35;16.00;;;717.30;1689.60;;;;;;5073980;28;20465;-70
2021/07/26 09:28:06;;;;;;;62.75;13.43;;;717.30;1664.00;;;;;;5074313;28;20119;-73
2021/07/26 09:30:51;;;;;;;59.40;12.60;;;717.40;1664.00;;;;;;5074961;28;20024;-74
2021/07/26 09:33:23;;;;;;;40.33;12.80;;;717.30;1664.00;;;;;;5074922;28;20027;-70
2021/07/26 09:36:18;;;;;;;46.25;11.85;;;717.50;1664.00;;;;;;5073938;28;20098;-74
2021/07/26 09:38:55;;;;;;;25.88;11.98;;;717.50;1664.00;;;;;;5054421;28;20093;-75
2021/07/26 09:41:48;;;;;;;27.48;11.48;;;717.50;1664.00;;;;;;5054556;28;20052;-75
2021/07/26 09:44:20;;;;;;;23.67;13.27;;;717.40;1664.00;;;;;;5054591;28;20017;-70
2021/07/26 09:46:46;;;;;;;45.27;13.57;;;717.50;1664.00;;;;;;5054374;28;20067;-74
2021/07/26 09:49:14;;;;;;;38.28;12.95;;;717.50;1664.00;;;;;;5060501;28;20052;-73
2021/07/26 09:51:40;;;;;;;39.00;14.80;;;717.40;1689.60;;;;;;5071154;28;20058;-70
2021/07/26 09:54:07;;;;;;;42.75;13.63;;;717.50;1664.00;;;;;;5056415;28;20477;-75
2021/07/26 09:56:33;;;;;;;29.55;14.55;;;717.50;1664.00;;;;;;5073645;28;20483;-75
2021/07/26 09:59:01;;;;;;;27.85;12.32;;;717.50;1689.60;;;;;;5074068;28;20115;-73
2021/07/26 10:01:27;;;;;;;31.95;12.23;;;717.50;1689.60;;;;;;5073687;28;20051;-75
2021/07/26 10:03:53;;;;;;;32.20;12.98;;;717.60;1689.60;;;;;;5073574;28;20028;-72
2021/07/26 10:06:20;;;;;;;26.13;12.05;;;717.60;1689.60;;;;;;5055446;28;20012;-71
2021/07/26 10:08:49;;;;;;;42.55;12.65;;;717.60;1689.60;;;;;;5073769;28;20507;-73
2021/07/26 10:11:16;;;;;;;29.25;12.07;;;717.60;1689.60;;;;;;5073891;28;20030;-73
2021/07/26 10:13:45;;;;;;;22.85;10.63;;;717.60;1689.60;;;;;;5072950;28;20020;-72
2021/07/26 10:16:15;;;;;;;22.95;10.65;;;717.60;1664.00;;;;;;5073624;28;20527;-72
2021/07/26 10:18:46;;;;;;;25.30;10.02;;;717.60;1638.40;;;;;;5073213;28;20041;-72
2021/07/26 10:21:17;;;;;;;26.98;10.30;;;717.70;1638.40;;;;;;5073777;28;20020;-69
2021/07/26 10:23:56;;;;;;;24.17;9.15;;;742.40;1612.80;;;;;;5055207;28;20024;-70
2021/07/26 10:26:35;;;;;;;25.15;9.65;;;742.40;1587.20;;;;;;5073620;28;20407;-68
2021/07/26 10:29:02;;;;;;;26.23;9.38;;;742.50;1612.80;;;;;;5072963;28;20036;-72
2021/07/26 10:31:28;;;;;;;35.08;10.10;;;742.40;1612.80;;;;;;5073379;28;20028;-73
2021/07/26 10:34:11;;;;;;;23.65;8.85;;;742.40;1612.80;;;;;;5073173;28;20020;-72
2021/07/26 10:36:43;;;;;;;27.58;8.38;;;742.50;1587.20;;;;;;5073140;28;20473;-73
2021/07/26 10:39:13;;;;;;;37.97;9.50;;;742.50;1561.60;;;;;;5073094;28;20028;-70
2021/07/26 10:41:47;;;;;;;27.38;9.07;;;742.50;1561.60;;;;;;5072988;28;20265;-74
2021/07/26 10:44:16;;;;;;;24.50;8.10;;;742.50;1561.60;;;;;;5073328;28;20472;-71
2021/07/26 10:46:51;;;;;;;31.73;9.13;;;742.50;1561.60;;;;;;5072406;28;20112;-69
2021/07/26 10:49:17;;;;;;;33.35;8.50;;;742.50;1561.60;;;;;;5073020;28;20118;-71
2021/07/26 10:51:45;;;;;;;77.35;11.40;;;742.60;1561.60;;;;;;5054708;28;20020;-69
2021/07/26 10:54:31;;;;;;;41.83;10.75;;;742.50;1587.20;;;;;;5073293;28;20384;-69
2021/07/26 10:57:03;;;;;;;52.65;9.45;;;742.60;1587.20;;;;;;5072375;28;20051;-73
2021/07/26 10:59:30;;;;;;;48.03;9.10;;;742.60;1561.60;;;;;;5073114;28;20493;-72
2021/07/26 11:01:57;;;;;;;27.25;8.98;;;742.60;1561.60;;;;;;5072867;28;20099;-68
2021/07/26 11:04:34;;;;;;;25.77;9.05;;;742.80;1561.60;;;;;;5072808;28;20025;-69
2021/07/26 11:07:23;;;;;;;28.67;8.45;;;742.90;1536.00;;;;;;5072732;28;20177;-69
2021/07/26 11:09:49;;;;;;;21.60;8.75;;;743.00;1536.00;;;;;;5064489;28;20048;-69
2021/07/26 11:12:51;;;;;;;22.50;7.90;;;743.00;1536.00;;;;;;5072651;28;20021;-71
2021/07/26 11:15:17;;;;;;;25.05;9.45;;;742.90;1561.60;;;;;;5072800;28;20043;-69
2021/07/26 11:18:22;;;;;;;30.20;9.77;;;742.90;1536.00;;;;;;5054189;28;20189;-69
2021/07/26 11:20:56;;;;;;;79.38;10.20;;;742.90;1536.00;;;;;;5044458;28;20045;-70
2021/07/26 11:23:55;;;;;;;44.53;9.60;;;742.90;1561.60;;;;;;5071129;28;20100;-73
2021/07/26 11:26:29;;;;;;;29.05;9.15;;;742.90;1536.00;;;;;;4992410;28;20034;-72
2021/07/26 11:29:01;;;;;;;25.33;10.02;;;742.90;1510.40;;;;;;5004721;28;20435;-68
2021/07/26 11:31:34;;;;;;;61.47;9.93;;;742.90;1510.40;;;;;;5010348;28;20411;-69
2021/07/26 11:34:13;;;;;;;15.73;8.98;;;742.90;1510.40;;;;;;5010310;28;20034;-69
2021/07/26 11:37:15;;;;;;;22.38;9.32;;;742.70;1536.00;;;;;;5009889;28;20164;-69
2021/07/26 11:39:52;;;;;;;17.08;8.43;;;742.90;1510.40;;;;;;5009944;28;20042;-69
2021/07/26 11:42:31;;;;;;;19.95;9.32;;;742.90;1510.40;;;;;;5010089;28;20120;-72
2021/07/26 11:44:59;;;;;;;19.92;8.57;;;743.00;1510.40;;;;;;5009887;28;20587;-68
2021/07/26 11:47:38;;;;;;;28.80;10.88;;;743.00;1536.00;;;;;;5009714;28;20113;-69
2021/07/26 11:50:15;;;;;;;20.65;9.10;;;743.00;1536.00;;;;;;5008019;28;20093;-70
2021/07/26 11:52:57;;;;;;;60.70;11.82;;;743.00;1510.40;;;;;;5007408;28;20042;-70
2021/07/26 11:55:33;;;;;;;33.15;11.02;;;743.00;1536.00;;;;;;5009993;28;20034;-69
2021/07/26 11:58:01;;;;;;;22.52;9.38;;;742.90;1536.00;;;;;;5009353;28;20050;-69
2021/07/26 12:00:41;;;;;;;37.80;12.85;;;742.90;1510.40;;;;;;5010243;28;20018;-69
2021/07/26 12:03:08;;;;;;;28.60;11.43;;;743.00;1510.40;;;;;;5030763;28;20049;-71
2021/07/26 12:05:35;;;;;;;29.55;13.68;;;743.00;1510.40;;;;;;5031929;28;20024;-72
2021/07/26 12:08:11;;;;;;;56.67;13.55;;;743.00;1536.00;;;;;;5031778;28;20026;-73
2021/07/26 12:10:38;;;;;;;34.22;12.45;;;743.00;1536.00;;;;;;5031972;28;20359;-73
2021/07/26 12:13:15;;;;;;;29.27;12.07;;;743.00;1561.60;;;;;;5031983;28;20035;-74
2021/07/26 12:15:42;;;;;;;23.00;11.77;;;743.00;1536.00;;;;;;5032085;28;20021;-71
2021/07/26 12:18:09;;;;;;;19.27;9.73;;;743.00;1561.60;;;;;;5031759;28;20113;-74
2021/07/26 12:20:43;;;;;;;18.85;11.70;;;743.00;1561.60;;;;;;5032097;28;20109;-69
2021/07/26 12:23:17;;;;;;;21.65;10.60;;;743.10;1536.00;;;;;;5032406;28;20043;-73